sensor_id;sensor_type;location;lat;lon;timestamp;P1;durP1;ratioP1;P2;durP2;ratioP2
5157;SDS011;2598;52.364;9.772;2023-03-20T07:36:23;31.27;;;16.73;;
5157;SDS011;2598;52.364;9.772;2023-03-20T07:38:49;32.33;;;17.77;;
5157;SDS011;2598;52.364;9.772;2023-03-20T07:41:15;30.40;;;14.80;;
5157;SDS011;2598;52.364;9.772;2023-03-20T07:43:41;26.87;;;13.83;;
5157;SDS011;2598;52.364;9.772;2023-03-20T07:46:07;28.90;;;13.83;;
5157;SDS011;2598;52.364;9.772;2023-03-20T07:48:34;28.43;;;14.00;;
5157;SDS011;2598;52.364;9.772;2023-03-20T07:51:00;25.00;;;13.30;;
5157;SDS011;2598;52.364;9.772;2023-03-20T07:53:26;25.60;;;14.53;;
5157;SDS011;2598;52.364;9.772;2023-03-20T07:55:52;26.27;;;15.07;;
5157;SDS011;2598;52.364;9.772;2023-03-20T07:58:18;25.90;;;13.67;;
5157;SDS011;2598;52.364;9.772;2023-03-20T08:00:44;23.03;;;13.47;;
5157;SDS011;2598;52.364;9.772;2023-03-20T08:03:10;29.97;;;15.50;;
5157;SDS011;2598;52.364;9.772;2023-03-20T08:05:36;23.70;;;13.80;;
5157;SDS011;2598;52.364;9.772;2023-03-20T08:08:02;25.10;;;12.90;;
5157;SDS011;2598;52.364;9.772;2023-03-20T08:10:28;22.27;;;13.27;;
5157;SDS011;2598;52.364;9.772;2023-03-20T08:12:55;23.57;;;11.90;;
5157;SDS011;2598;52.364;9.772;2023-03-20T08:15:21;20.70;;;13.07;;
5157;SDS011;2598;52.364;9.772;2023-03-20T08:17:47;21.50;;;12.57;;
5157;SDS011;2598;52.364;9.772;2023-03-20T08:20:14;22.40;;;12.40;;
5157;SDS011;2598;52.364;9.772;2023-03-20T08:22:41;18.37;;;10.90;;
5157;SDS011;2598;52.364;9.772;2023-03-20T08:25:10;19.83;;;10.67;;
5157;SDS011;2598;52.364;9.772;2023-03-20T08:27:36;18.83;;;10.60;;
5157;SDS011;2598;52.364;9.772;2023-03-20T08:30:03;21.53;;;11.90;;
5157;SDS011;2598;52.364;9.772;2023-03-20T08:32:29;20.10;;;11.80;;
5157;SDS011;2598;52.364;9.772;2023-03-20T08:34:55;21.35;;;12.98;;
5157;SDS011;2598;52.364;9.772;2023-03-20T08:37:21;21.20;;;13.10;;
5157;SDS011;2598;52.364;9.772;2023-03-20T08:39:47;19.33;;;11.97;;
5157;SDS011;2598;52.364;9.772;2023-03-20T08:42:13;18.77;;;11.23;;
5157;SDS011;2598;52.364;9.772;2023-03-20T08:44:39;20.63;;;13.85;;
5157;SDS011;2598;52.364;9.772;2023-03-20T08:47:05;17.53;;;11.90;;
5157;SDS011;2598;52.364;9.772;2023-03-20T08:49:34;20.93;;;11.40;;
5157;SDS011;2598;52.364;9.772;2023-03-20T08:52:00;23.57;;;12.07;;
5157;SDS011;2598;52.364;9.772;2023-03-20T08:54:26;22.00;;;11.73;;
5157;SDS011;2598;52.364;9.772;2023-03-20T08:56:52;23.10;;;11.40;;
5157;SDS011;2598;52.364;9.772;2023-03-20T08:59:18;21.33;;;12.10;;
5157;SDS011;2598;52.364;9.772;2023-03-20T09:01:45;20.10;;;12.03;;
5157;SDS011;2598;52.364;9.772;2023-03-20T09:04:11;19.47;;;11.90;;
5157;SDS011;2598;52.364;9.772;2023-03-20T09:06:37;25.40;;;11.90;;
5157;SDS011;2598;52.364;9.772;2023-03-20T09:09:04;23.90;;;13.00;;
5157;SDS011;2598;52.364;9.772;2023-03-20T09:11:30;21.30;;;11.83;;
5157;SDS011;2598;52.364;9.772;2023-03-20T09:13:56;22.33;;;12.40;;
5157;SDS011;2598;52.364;9.772;2023-03-20T09:16:23;20.50;;;11.77;;
5157;SDS011;2598;52.364;9.772;2023-03-20T09:18:49;20.07;;;11.10;;
5157;SDS011;2598;52.364;9.772;2023-03-20T09:21:15;21.90;;;12.37;;
5157;SDS011;2598;52.364;9.772;2023-03-20T09:23:41;24.90;;;12.17;;
5157;SDS011;2598;52.364;9.772;2023-03-20T09:26:07;24.27;;;12.23;;
5157;SDS011;2598;52.364;9.772;2023-03-20T09:28:33;17.87;;;10.93;;
5157;SDS011;2598;52.364;9.772;2023-03-20T09:30:59;18.63;;;11.30;;
5157;SDS011;2598;52.364;9.772;2023-03-20T09:33:25;19.83;;;9.93;;
5157;SDS011;2598;52.364;9.772;2023-03-20T09:35:52;21.27;;;11.73;;
5157;SDS011;2598;52.364;9.772;2023-03-20T09:38:18;17.00;;;10.63;;
5157;SDS011;2598;52.364;9.772;2023-03-20T09:40:49;17.07;;;10.70;;
5157;SDS011;2598;52.364;9.772;2023-03-20T09:43:28;19.97;;;11.77;;
5157;SDS011;2598;52.364;9.772;2023-03-20T09:46:17;21.33;;;12.40;;
5157;SDS011;2598;52.364;9.772;2023-03-20T09:48:50;19.10;;;11.23;;
5157;SDS011;2598;52.364;9.772;2023-03-20T09:53:46;18.83;;;11.67;;
5157;SDS011;2598;52.364;9.772;2023-03-20T09:56:19;22.37;;;12.50;;
5157;SDS011;2598;52.364;9.772;2023-03-20T09:58:47;20.03;;;12.80;;
5157;SDS011;2598;52.364;9.772;2023-03-20T10:01:16;20.57;;;12.40;;
5157;SDS011;2598;52.364;9.772;2023-03-20T10:04:00;20.27;;;11.70;;
5157;SDS011;2598;52.364;9.772;2023-03-20T10:06:29;23.50;;;12.80;;
5157;SDS011;2598;52.364;9.772;2023-03-20T10:08:55;17.77;;;11.43;;
5157;SDS011;2598;52.364;9.772;2023-03-20T10:11:28;20.00;;;11.77;;
5157;SDS011;2598;52.364;9.772;2023-03-20T10:16:30;18.13;;;11.00;;
5157;SDS011;2598;52.364;9.772;2023-03-20T10:19:05;20.43;;;11.10;;
5157;SDS011;2598;52.364;9.772;2023-03-20T10:21:41;17.07;;;10.90;;
5157;SDS011;2598;52.364;9.772;2023-03-20T10:24:15;18.53;;;10.47;;
5157;SDS011;2598;52.364;9.772;2023-03-20T10:26:43;21.60;;;12.27;;
5157;SDS011;2598;52.364;9.772;2023-03-20T10:29:17;20.43;;;12.00;;
5157;SDS011;2598;52.364;9.772;2023-03-20T10:31:56;16.87;;;10.67;;
5157;SDS011;2598;52.364;9.772;2023-03-20T10:34:28;17.70;;;10.77;;
5157;SDS011;2598;52.364;9.772;2023-03-20T10:39:41;16.97;;;8.60;;
5157;SDS011;2598;52.364;9.772;2023-03-20T10:42:18;14.63;;;8.20;;
5157;SDS011;2598;52.364;9.772;2023-03-20T10:44:49;14.80;;;6.60;;
5157;SDS011;2598;52.364;9.772;2023-03-20T10:47:17;11.80;;;6.73;;
5157;SDS011;2598;52.364;9.772;2023-03-20T10:49:47;13.10;;;7.20;;
5157;SDS011;2598;52.364;9.772;2023-03-20T10:52:16;11.03;;;6.03;;
5157;SDS011;2598;52.364;9.772;2023-03-20T10:54:49;11.30;;;6.30;;
5157;SDS011;2598;52.364;9.772;2023-03-20T10:57:20;11.10;;;5.33;;
5157;SDS011;2598;52.364;9.772;2023-03-20T10:59:48;11.87;;;5.97;;
5157;SDS011;2598;52.364;9.772;2023-03-20T11:02:15;11.07;;;5.50;;
5157;SDS011;2598;52.364;9.772;2023-03-20T11:04:42;10.90;;;5.70;;
5157;SDS011;2598;52.364;9.772;2023-03-20T11:07:15;11.27;;;5.60;;
5157;SDS011;2598;52.364;9.772;2023-03-20T11:09:44;10.10;;;5.13;;
5157;SDS011;2598;52.364;9.772;2023-03-20T11:12:14;13.23;;;5.73;;
5157;SDS011;2598;52.364;9.772;2023-03-20T11:14:41;10.63;;;5.03;;
5157;SDS011;2598;52.364;9.772;2023-03-20T11:17:07;9.00;;;4.97;;
5157;SDS011;2598;52.364;9.772;2023-03-20T11:19:35;9.67;;;5.40;;
5157;SDS011;2598;52.364;9.772;2023-03-20T11:24:46;7.63;;;4.50;;
5157;SDS011;2598;52.364;9.772;2023-03-20T11:27:23;11.77;;;5.70;;
5157;SDS011;2598;52.364;9.772;2023-03-20T11:29:50;12.50;;;5.10;;
5157;SDS011;2598;52.364;9.772;2023-03-20T11:32:26;12.63;;;5.17;;
5157;SDS011;2598;52.364;9.772;2023-03-20T11:34:53;10.97;;;4.80;;
5157;SDS011;2598;52.364;9.772;2023-03-20T11:37:23;11.50;;;5.80;;
5157;SDS011;2598;52.364;9.772;2023-03-20T11:40:12;9.17;;;4.93;;
5157;SDS011;2598;52.364;9.772;2023-03-20T11:42:39;9.13;;;4.73;;
5157;SDS011;2598;52.364;9.772;2023-03-20T11:45:16;7.47;;;4.33;;
5157;SDS011;2598;52.364;9.772;2023-03-20T11:47:42;9.27;;;4.30;;
5157;SDS011;2598;52.364;9.772;2023-03-20T11:50:23;12.37;;;4.97;;
5157;SDS011;2598;52.364;9.772;2023-03-20T11:52:50;8.47;;;4.20;;
5157;SDS011;2598;52.364;9.772;2023-03-20T11:55:24;10.73;;;5.40;;
5157;SDS011;2598;52.364;9.772;2023-03-20T11:57:54;38.23;;;12.03;;
5157;SDS011;2598;52.364;9.772;2023-03-20T12:00:21;8.53;;;4.87;;
5157;SDS011;2598;52.364;9.772;2023-03-20T12:02:48;10.10;;;5.30;;
5157;SDS011;2598;52.364;9.772;2023-03-20T12:05:27;11.13;;;4.87;;
5157;SDS011;2598;52.364;9.772;2023-03-20T12:07:55;9.13;;;5.30;;
5157;SDS011;2598;52.364;9.772;2023-03-20T12:10:23;9.93;;;4.53;;
5157;SDS011;2598;52.364;9.772;2023-03-20T12:13:03;9.17;;;4.57;;
5157;SDS011;2598;52.364;9.772;2023-03-20T12:15:32;12.27;;;5.10;;
5157;SDS011;2598;52.364;9.772;2023-03-20T12:18:42;10.40;;;4.40;;
5157;SDS011;2598;52.364;9.772;2023-03-20T12:23:23;9.37;;;4.90;;
5157;SDS011;2598;52.364;9.772;2023-03-20T12:25:55;13.57;;;5.10;;
5157;SDS011;2598;52.364;9.772;2023-03-20T12:28:29;10.27;;;4.60;;
5157;SDS011;2598;52.364;9.772;2023-03-20T12:31:17;10.17;;;4.90;;
5157;SDS011;2598;52.364;9.772;2023-03-20T12:36:31;9.13;;;4.47;;
5157;SDS011;2598;52.364;9.772;2023-03-20T12:38:58;10.40;;;5.10;;
5157;SDS011;2598;52.364;9.772;2023-03-20T12:41:34;10.33;;;5.60;;
5157;SDS011;2598;52.364;9.772;2023-03-20T12:44:08;11.90;;;4.90;;
5157;SDS011;2598;52.364;9.772;2023-03-20T12:54:38;11.17;;;4.90;;
5157;SDS011;2598;52.364;9.772;2023-03-20T12:57:14;11.57;;;7.20;;
5157;SDS011;2598;52.364;9.772;2023-03-20T12:59:45;12.37;;;6.83;;
5157;SDS011;2598;52.364;9.772;2023-03-20T13:02:31;13.03;;;6.87;;
5157;SDS011;2598;52.364;9.772;2023-03-20T13:08:17;9.40;;;6.60;;
5157;SDS011;2598;52.364;9.772;2023-03-20T13:10:21;11.37;;;6.37;;
5157;SDS011;2598;52.364;9.772;2023-03-20T13:15:22;11.07;;;6.83;;
5157;SDS011;2598;52.364;9.772;2023-03-20T13:17:51;13.00;;;7.13;;
5157;SDS011;2598;52.364;9.772;2023-03-20T13:20:22;11.70;;;6.90;;
5157;SDS011;2598;52.364;9.772;2023-03-20T13:28:15;12.20;;;6.33;;
5157;SDS011;2598;52.364;9.772;2023-03-20T13:30:45;9.47;;;6.20;;
5157;SDS011;2598;52.364;9.772;2023-03-20T13:36:02;10.90;;;6.90;;
5157;SDS011;2598;52.364;9.772;2023-03-20T13:38:32;10.10;;;6.30;;
5157;SDS011;2598;52.364;9.772;2023-03-20T13:41:00;11.20;;;6.90;;
5157;SDS011;2598;52.364;9.772;2023-03-20T13:43:27;13.17;;;7.00;;
5157;SDS011;2598;52.364;9.772;2023-03-20T13:48:41;11.00;;;6.23;;
5157;SDS011;2598;52.364;9.772;2023-03-20T13:54:07;11.00;;;6.03;;
5157;SDS011;2598;52.364;9.772;2023-03-20T13:56:38;13.13;;;5.97;;
5157;SDS011;2598;52.364;9.772;2023-03-20T14:01:49;11.17;;;5.60;;
5157;SDS011;2598;52.364;9.772;2023-03-20T14:04:20;12.20;;;5.37;;
5157;SDS011;2598;52.364;9.772;2023-03-20T14:06:49;10.33;;;6.23;;
5157;SDS011;2598;52.364;9.772;2023-03-20T14:09:35;9.87;;;5.57;;
5157;SDS011;2598;52.364;9.772;2023-03-20T14:12:08;8.67;;;5.63;;
5157;SDS011;2598;52.364;9.772;2023-03-20T14:14:42;11.50;;;5.13;;
5157;SDS011;2598;52.364;9.772;2023-03-20T14:17:13;11.87;;;5.47;;
5157;SDS011;2598;52.364;9.772;2023-03-20T14:19:39;15.00;;;5.70;;
5157;SDS011;2598;52.364;9.772;2023-03-20T14:22:05;10.20;;;4.90;;
5157;SDS011;2598;52.364;9.772;2023-03-20T14:24:35;10.67;;;5.90;;
5157;SDS011;2598;52.364;9.772;2023-03-20T14:27:02;11.67;;;5.60;;
5157;SDS011;2598;52.364;9.772;2023-03-20T14:34:45;8.90;;;5.37;;
5157;SDS011;2598;52.364;9.772;2023-03-20T14:50:11;9.40;;;6.47;;
5157;SDS011;2598;52.364;9.772;2023-03-20T14:52:41;16.63;;;6.63;;
5157;SDS011;2598;52.364;9.772;2023-03-20T14:55:29;11.10;;;5.47;;
5157;SDS011;2598;52.364;9.772;2023-03-20T14:57:56;13.77;;;6.23;;
5157;SDS011;2598;52.364;9.772;2023-03-20T15:00:27;12.87;;;5.80;;
5157;SDS011;2598;52.364;9.772;2023-03-20T15:03:05;8.93;;;5.90;;
5157;SDS011;2598;52.364;9.772;2023-03-20T15:05:32;9.50;;;4.90;;
5157;SDS011;2598;52.364;9.772;2023-03-20T15:08:06;9.90;;;5.70;;
5157;SDS011;2598;52.364;9.772;2023-03-20T15:10:34;9.70;;;5.13;;
5157;SDS011;2598;52.364;9.772;2023-03-20T15:13:04;7.73;;;4.70;;
5157;SDS011;2598;52.364;9.772;2023-03-20T15:15:30;8.90;;;4.87;;
5157;SDS011;2598;52.364;9.772;2023-03-20T15:18:05;13.40;;;4.83;;
5157;SDS011;2598;52.364;9.772;2023-03-20T15:20:34;11.33;;;5.13;;
5157;SDS011;2598;52.364;9.772;2023-03-20T15:23:00;7.93;;;3.87;;
5157;SDS011;2598;52.364;9.772;2023-03-20T15:25:28;12.33;;;4.90;;
5157;SDS011;2598;52.364;9.772;2023-03-20T15:27:55;10.53;;;4.40;;
5157;SDS011;2598;52.364;9.772;2023-03-20T15:30:21;9.40;;;4.00;;
5157;SDS011;2598;52.364;9.772;2023-03-20T15:32:48;12.97;;;5.00;;
5157;SDS011;2598;52.364;9.772;2023-03-20T15:35:18;10.53;;;4.20;;
5157;SDS011;2598;52.364;9.772;2023-03-20T15:37:45;8.23;;;3.83;;
5157;SDS011;2598;52.364;9.772;2023-03-20T15:40:13;7.33;;;3.57;;
5157;SDS011;2598;52.364;9.772;2023-03-20T15:42:43;12.53;;;3.30;;
5157;SDS011;2598;52.364;9.772;2023-03-20T15:45:20;10.00;;;4.00;;
5157;SDS011;2598;52.364;9.772;2023-03-20T15:47:47;7.80;;;3.53;;
5157;SDS011;2598;52.364;9.772;2023-03-20T15:50:13;6.93;;;3.30;;
5157;SDS011;2598;52.364;9.772;2023-03-20T15:52:44;9.63;;;3.80;;
5157;SDS011;2598;52.364;9.772;2023-03-20T15:55:17;8.93;;;3.50;;
5157;SDS011;2598;52.364;9.772;2023-03-20T15:57:44;7.93;;;3.30;;
5157;SDS011;2598;52.364;9.772;2023-03-20T16:02:44;7.20;;;3.03;;
5157;SDS011;2598;52.364;9.772;2023-03-20T16:05:11;6.70;;;3.20;;
5157;SDS011;2598;52.364;9.772;2023-03-20T16:07:38;7.07;;;3.53;;
5157;SDS011;2598;52.364;9.772;2023-03-20T16:10:17;8.00;;;3.13;;
5157;SDS011;2598;52.364;9.772;2023-03-20T16:12:47;11.30;;;3.63;;
5157;SDS011;2598;52.364;9.772;2023-03-20T16:15:15;10.23;;;4.03;;
5157;SDS011;2598;52.364;9.772;2023-03-20T16:17:41;13.43;;;3.73;;
5157;SDS011;2598;52.364;9.772;2023-03-20T16:20:12;10.67;;;5.60;;
5157;SDS011;2598;52.364;9.772;2023-03-20T16:22:38;13.93;;;7.00;;
5157;SDS011;2598;52.364;9.772;2023-03-20T16:25:05;9.37;;;4.30;;
5157;SDS011;2598;52.364;9.772;2023-03-20T16:27:32;8.57;;;4.90;;
5157;SDS011;2598;52.364;9.772;2023-03-20T16:29:59;9.03;;;5.03;;
5157;SDS011;2598;52.364;9.772;2023-03-20T16:32:31;9.27;;;4.27;;
5157;SDS011;2598;52.364;9.772;2023-03-20T16:34:58;10.60;;;3.83;;
5157;SDS011;2598;52.364;9.772;2023-03-20T16:37:28;9.40;;;4.17;;
5157;SDS011;2598;52.364;9.772;2023-03-20T16:40:01;9.03;;;4.50;;
5157;SDS011;2598;52.364;9.772;2023-03-20T16:42:28;10.37;;;3.63;;
5157;SDS011;2598;52.364;9.772;2023-03-20T16:44:54;13.87;;;4.30;;
5157;SDS011;2598;52.364;9.772;2023-03-20T16:47:21;11.80;;;4.10;;
5157;SDS011;2598;52.364;9.772;2023-03-20T16:52:31;9.60;;;4.80;;
5157;SDS011;2598;52.364;9.772;2023-03-20T16:55:00;7.53;;;4.30;;
5157;SDS011;2598;52.364;9.772;2023-03-20T16:57:26;14.73;;;5.13;;
5157;SDS011;2598;52.364;9.772;2023-03-20T16:59:55;8.40;;;4.13;;
5157;SDS011;2598;52.364;9.772;2023-03-20T17:02:35;9.67;;;3.83;;
5157;SDS011;2598;52.364;9.772;2023-03-20T17:05:03;8.67;;;3.80;;
5157;SDS011;2598;52.364;9.772;2023-03-20T17:07:29;11.63;;;3.97;;
5157;SDS011;2598;52.364;9.772;2023-03-20T17:10:00;13.30;;;6.20;;
5157;SDS011;2598;52.364;9.772;2023-03-20T17:12:34;12.07;;;4.87;;
5157;SDS011;2598;52.364;9.772;2023-03-20T17:15:02;7.77;;;4.27;;
5157;SDS011;2598;52.364;9.772;2023-03-20T17:17:28;11.53;;;4.47;;
5157;SDS011;2598;52.364;9.772;2023-03-20T17:19:54;14.03;;;4.80;;
5157;SDS011;2598;52.364;9.772;2023-03-20T17:22:22;8.30;;;4.17;;
5157;SDS011;2598;52.364;9.772;2023-03-20T17:24:48;12.20;;;4.60;;
5157;SDS011;2598;52.364;9.772;2023-03-20T17:27:14;14.30;;;4.77;;
5157;SDS011;2598;52.364;9.772;2023-03-20T17:29:42;8.33;;;4.47;;
5157;SDS011;2598;52.364;9.772;2023-03-20T17:32:18;7.80;;;4.73;;
5157;SDS011;2598;52.364;9.772;2023-03-20T17:34:47;12.67;;;4.47;;
5157;SDS011;2598;52.364;9.772;2023-03-20T17:37:14;9.80;;;4.77;;
5157;SDS011;2598;52.364;9.772;2023-03-20T17:39:42;12.60;;;6.07;;
5157;SDS011;2598;52.364;9.772;2023-03-20T17:42:18;8.40;;;5.30;;
5157;SDS011;2598;52.364;9.772;2023-03-20T17:44:44;12.63;;;5.97;;
5157;SDS011;2598;52.364;9.772;2023-03-20T17:47:14;15.50;;;5.80;;
5157;SDS011;2598;52.364;9.772;2023-03-20T17:49:40;10.67;;;5.90;;
5157;SDS011;2598;52.364;9.772;2023-03-20T17:52:16;13.40;;;5.77;;
5157;SDS011;2598;52.364;9.772;2023-03-20T17:54:42;15.97;;;6.47;;
5157;SDS011;2598;52.364;9.772;2023-03-20T17:57:25;13.50;;;6.13;;
5157;SDS011;2598;52.364;9.772;2023-03-20T17:59:53;11.67;;;6.40;;
5157;SDS011;2598;52.364;9.772;2023-03-20T18:02:20;11.47;;;5.90;;
5157;SDS011;2598;52.364;9.772;2023-03-20T18:04:46;9.70;;;5.93;;
5157;SDS011;2598;52.364;9.772;2023-03-20T18:07:12;9.53;;;5.90;;
5157;SDS011;2598;52.364;9.772;2023-03-20T18:09:39;10.57;;;6.13;;
5157;SDS011;2598;52.364;9.772;2023-03-20T18:12:05;10.80;;;5.60;;
5157;SDS011;2598;52.364;9.772;2023-03-20T18:14:31;15.80;;;5.47;;
5157;SDS011;2598;52.364;9.772;2023-03-20T18:16:57;9.20;;;5.00;;
5157;SDS011;2598;52.364;9.772;2023-03-20T18:19:24;11.87;;;6.00;;
5157;SDS011;2598;52.364;9.772;2023-03-20T18:21:52;10.43;;;5.47;;
5157;SDS011;2598;52.364;9.772;2023-03-20T18:24:18;9.50;;;5.47;;
5157;SDS011;2598;52.364;9.772;2023-03-20T18:26:44;11.97;;;5.63;;
5157;SDS011;2598;52.364;9.772;2023-03-20T18:29:11;11.63;;;5.57;;
5157;SDS011;2598;52.364;9.772;2023-03-20T18:31:37;14.90;;;5.80;;
5157;SDS011;2598;52.364;9.772;2023-03-20T18:34:03;13.73;;;5.37;;
5157;SDS011;2598;52.364;9.772;2023-03-20T18:36:29;12.40;;;5.40;;
5157;SDS011;2598;52.364;9.772;2023-03-20T18:38:56;12.53;;;5.63;;
5157;SDS011;2598;52.364;9.772;2023-03-20T18:41:22;8.50;;;5.30;;
5157;SDS011;2598;52.364;9.772;2023-03-20T18:43:48;11.00;;;5.63;;
5157;SDS011;2598;52.364;9.772;2023-03-20T18:46:16;10.13;;;4.93;;
5157;SDS011;2598;52.364;9.772;2023-03-20T18:48:43;7.60;;;4.60;;
5157;SDS011;2598;52.364;9.772;2023-03-20T18:51:09;9.83;;;4.87;;
5157;SDS011;2598;52.364;9.772;2023-03-20T18:53:35;10.93;;;4.30;;
5157;SDS011;2598;52.364;9.772;2023-03-20T18:56:01;9.27;;;4.37;;
5157;SDS011;2598;52.364;9.772;2023-03-20T18:58:28;10.07;;;5.57;;
5157;SDS011;2598;52.364;9.772;2023-03-20T19:00:55;11.07;;;5.00;;
5157;SDS011;2598;52.364;9.772;2023-03-20T19:03:22;9.70;;;4.20;;
5157;SDS011;2598;52.364;9.772;2023-03-20T19:05:52;9.43;;;5.00;;
5157;SDS011;2598;52.364;9.772;2023-03-20T19:08:18;8.97;;;4.20;;
5157;SDS011;2598;52.364;9.772;2023-03-20T19:10:45;9.50;;;4.70;;
5157;SDS011;2598;52.364;9.772;2023-03-20T19:13:12;9.83;;;4.70;;
5157;SDS011;2598;52.364;9.772;2023-03-20T19:15:38;9.70;;;4.03;;
5157;SDS011;2598;52.364;9.772;2023-03-20T19:18:05;8.03;;;4.43;;
5157;SDS011;2598;52.364;9.772;2023-03-20T19:20:33;13.77;;;4.60;;
5157;SDS011;2598;52.364;9.772;2023-03-20T19:23:00;9.87;;;4.70;;
5157;SDS011;2598;52.364;9.772;2023-03-20T19:25:26;10.87;;;4.50;;
5157;SDS011;2598;52.364;9.772;2023-03-20T19:27:52;7.53;;;4.43;;
5157;SDS011;2598;52.364;9.772;2023-03-20T19:30:22;11.67;;;4.60;;
5157;SDS011;2598;52.364;9.772;2023-03-20T19:32:50;11.73;;;4.33;;
5157;SDS011;2598;52.364;9.772;2023-03-20T19:35:16;9.60;;;4.03;;
5157;SDS011;2598;52.364;9.772;2023-03-20T19:37:42;11.83;;;4.93;;
5157;SDS011;2598;52.364;9.772;2023-03-20T19:40:26;14.90;;;5.50;;
5157;SDS011;2598;52.364;9.772;2023-03-20T19:42:52;11.67;;;5.20;;
5157;SDS011;2598;52.364;9.772;2023-03-20T19:45:18;12.27;;;5.73;;
5157;SDS011;2598;52.364;9.772;2023-03-20T19:47:44;14.40;;;6.10;;
5157;SDS011;2598;52.364;9.772;2023-03-20T19:50:44;12.70;;;6.67;;
5157;SDS011;2598;52.364;9.772;2023-03-20T19:53:04;10.70;;;5.90;;
5157;SDS011;2598;52.364;9.772;2023-03-20T19:55:30;10.93;;;6.30;;
5157;SDS011;2598;52.364;9.772;2023-03-20T19:57:57;13.43;;;7.07;;
5157;SDS011;2598;52.364;9.772;2023-03-20T20:00:24;9.93;;;6.90;;
5157;SDS011;2598;52.364;9.772;2023-03-20T20:02:51;15.50;;;7.23;;
5157;SDS011;2598;52.364;9.772;2023-03-20T20:05:21;13.20;;;7.67;;
5157;SDS011;2598;52.364;9.772;2023-03-20T20:07:47;12.83;;;8.17;;
5157;SDS011;2598;52.364;9.772;2023-03-20T20:10:13;12.77;;;8.20;;
5157;SDS011;2598;52.364;9.772;2023-03-20T20:12:39;11.90;;;7.00;;
5157;SDS011;2598;52.364;9.772;2023-03-20T20:15:06;20.33;;;8.67;;
5157;SDS011;2598;52.364;9.772;2023-03-20T20:17:33;10.83;;;8.27;;
5157;SDS011;2598;52.364;9.772;2023-03-20T20:19:59;15.83;;;9.90;;
5157;SDS011;2598;52.364;9.772;2023-03-20T20:22:25;14.17;;;8.50;;
5157;SDS011;2598;52.364;9.772;2023-03-20T20:24:51;13.97;;;8.83;;
5157;SDS011;2598;52.364;9.772;2023-03-20T20:27:17;16.37;;;10.10;;
5157;SDS011;2598;52.364;9.772;2023-03-20T20:29:45;17.40;;;10.20;;
5157;SDS011;2598;52.364;9.772;2023-03-20T20:32:11;14.83;;;10.57;;
5157;SDS011;2598;52.364;9.772;2023-03-20T20:34:37;14.33;;;10.00;;
5157;SDS011;2598;52.364;9.772;2023-03-20T20:37:05;15.83;;;10.90;;
5157;SDS011;2598;52.364;9.772;2023-03-20T20:39:31;16.73;;;10.83;;
5157;SDS011;2598;52.364;9.772;2023-03-20T20:41:56;17.97;;;11.10;;
5157;SDS011;2598;52.364;9.772;2023-03-20T20:44:22;16.60;;;10.87;;
5157;SDS011;2598;52.364;9.772;2023-03-20T20:46:48;19.53;;;11.30;;
5157;SDS011;2598;52.364;9.772;2023-03-20T20:49:15;16.33;;;10.63;;
5157;SDS011;2598;52.364;9.772;2023-03-20T20:51:41;15.73;;;11.00;;
5157;SDS011;2598;52.364;9.772;2023-03-20T20:54:07;16.40;;;10.97;;
5157;SDS011;2598;52.364;9.772;2023-03-20T20:56:33;19.87;;;12.70;;
5157;SDS011;2598;52.364;9.772;2023-03-20T20:58:59;15.73;;;10.93;;
5157;SDS011;2598;52.364;9.772;2023-03-20T21:01:25;19.87;;;11.00;;
5157;SDS011;2598;52.364;9.772;2023-03-20T21:03:51;14.63;;;10.70;;
5157;SDS011;2598;52.364;9.772;2023-03-20T21:06:17;17.70;;;11.70;;
5157;SDS011;2598;52.364;9.772;2023-03-20T21:08:43;17.90;;;12.10;;
5157;SDS011;2598;52.364;9.772;2023-03-20T21:11:12;15.83;;;10.67;;
5157;SDS011;2598;52.364;9.772;2023-03-20T21:13:38;16.77;;;10.47;;
5157;SDS011;2598;52.364;9.772;2023-03-20T21:16:05;16.30;;;11.83;;
5157;SDS011;2598;52.364;9.772;2023-03-20T21:18:32;19.23;;;12.60;;
5157;SDS011;2598;52.364;9.772;2023-03-20T21:21:04;15.53;;;11.67;;
5157;SDS011;2598;52.364;9.772;2023-03-20T21:23:30;20.47;;;12.77;;
5157;SDS011;2598;52.364;9.772;2023-03-20T21:25:56;16.30;;;11.77;;
5157;SDS011;2598;52.364;9.772;2023-03-20T21:28:22;20.17;;;11.73;;
5157;SDS011;2598;52.364;9.772;2023-03-20T21:30:48;19.10;;;12.40;;
5157;SDS011;2598;52.364;9.772;2023-03-20T21:33:14;20.00;;;12.60;;
5157;SDS011;2598;52.364;9.772;2023-03-20T21:35:47;19.67;;;12.37;;
5157;SDS011;2598;52.364;9.772;2023-03-20T21:38:13;19.30;;;12.60;;
5157;SDS011;2598;52.364;9.772;2023-03-20T21:40:40;20.17;;;13.30;;
5157;SDS011;2598;52.364;9.772;2023-03-20T21:43:07;22.97;;;13.60;;
5157;SDS011;2598;52.364;9.772;2023-03-20T21:45:33;24.63;;;13.97;;
5157;SDS011;2598;52.364;9.772;2023-03-20T21:47:59;23.17;;;15.50;;
5157;SDS011;2598;52.364;9.772;2023-03-20T21:50:25;21.17;;;12.70;;
5157;SDS011;2598;52.364;9.772;2023-03-20T21:52:51;17.90;;;13.27;;
5157;SDS011;2598;52.364;9.772;2023-03-20T21:55:17;20.40;;;14.90;;
5157;SDS011;2598;52.364;9.772;2023-03-20T21:57:43;20.17;;;14.47;;
5157;SDS011;2598;52.364;9.772;2023-03-20T22:00:10;23.40;;;16.20;;
5157;SDS011;2598;52.364;9.772;2023-03-20T22:02:37;21.53;;;15.43;;
5157;SDS011;2598;52.364;9.772;2023-03-20T22:05:03;27.00;;;16.33;;
5157;SDS011;2598;52.364;9.772;2023-03-20T22:07:29;20.70;;;15.17;;
5157;SDS011;2598;52.364;9.772;2023-03-20T22:09:55;22.13;;;15.57;;
5157;SDS011;2598;52.364;9.772;2023-03-20T22:12:22;24.10;;;16.50;;
5157;SDS011;2598;52.364;9.772;2023-03-20T22:14:48;23.23;;;16.60;;
5157;SDS011;2598;52.364;9.772;2023-03-20T22:17:14;24.30;;;15.97;;
5157;SDS011;2598;52.364;9.772;2023-03-20T22:19:40;28.10;;;15.93;;
5157;SDS011;2598;52.364;9.772;2023-03-20T22:22:06;24.33;;;16.70;;
5157;SDS011;2598;52.364;9.772;2023-03-20T22:24:32;27.03;;;17.23;;
5157;SDS011;2598;52.364;9.772;2023-03-20T22:26:58;23.00;;;16.47;;
5157;SDS011;2598;52.364;9.772;2023-03-20T22:29:24;21.67;;;15.33;;
5157;SDS011;2598;52.364;9.772;2023-03-20T22:31:50;23.43;;;16.40;;
5157;SDS011;2598;52.364;9.772;2023-03-20T22:34:16;23.57;;;16.57;;
5157;SDS011;2598;52.364;9.772;2023-03-20T22:36:43;25.43;;;17.63;;
5157;SDS011;2598;52.364;9.772;2023-03-20T22:39:09;26.47;;;15.50;;
5157;SDS011;2598;52.364;9.772;2023-03-20T22:41:35;24.63;;;16.40;;
5157;SDS011;2598;52.364;9.772;2023-03-20T22:44:01;24.07;;;16.70;;
5157;SDS011;2598;52.364;9.772;2023-03-20T22:46:27;21.17;;;15.57;;
5157;SDS011;2598;52.364;9.772;2023-03-20T22:48:53;27.47;;;16.07;;
5157;SDS011;2598;52.364;9.772;2023-03-20T22:51:19;19.80;;;15.20;;
5157;SDS011;2598;52.364;9.772;2023-03-20T22:53:46;21.63;;;15.40;;
5157;SDS011;2598;52.364;9.772;2023-03-20T22:56:12;19.97;;;14.43;;
5157;SDS011;2598;52.364;9.772;2023-03-20T22:58:39;23.37;;;14.23;;
5157;SDS011;2598;52.364;9.772;2023-03-20T23:01:06;29.13;;;15.20;;
5157;SDS011;2598;52.364;9.772;2023-03-20T23:03:32;25.87;;;13.80;;
5157;SDS011;2598;52.364;9.772;2023-03-20T23:06:04;26.53;;;15.70;;
5157;SDS011;2598;52.364;9.772;2023-03-20T23:08:30;21.73;;;14.43;;
5157;SDS011;2598;52.364;9.772;2023-03-20T23:10:56;24.40;;;14.10;;
5157;SDS011;2598;52.364;9.772;2023-03-20T23:13:22;28.00;;;16.13;;
5157;SDS011;2598;52.364;9.772;2023-03-20T23:15:48;26.90;;;15.20;;
5157;SDS011;2598;52.364;9.772;2023-03-20T23:18:15;24.10;;;15.40;;
5157;SDS011;2598;52.364;9.772;2023-03-20T23:20:41;24.57;;;15.17;;
5157;SDS011;2598;52.364;9.772;2023-03-20T23:23:07;24.10;;;14.70;;
5157;SDS011;2598;52.364;9.772;2023-03-20T23:25:33;24.27;;;15.90;;
5157;SDS011;2598;52.364;9.772;2023-03-20T23:28:00;25.50;;;16.57;;
5157;SDS011;2598;52.364;9.772;2023-03-20T23:30:25;21.73;;;14.80;;
5157;SDS011;2598;52.364;9.772;2023-03-20T23:32:51;20.43;;;14.90;;
5157;SDS011;2598;52.364;9.772;2023-03-20T23:35:17;24.47;;;15.40;;
5157;SDS011;2598;52.364;9.772;2023-03-20T23:37:43;25.60;;;14.50;;
5157;SDS011;2598;52.364;9.772;2023-03-20T23:40:09;30.03;;;15.70;;
5157;SDS011;2598;52.364;9.772;2023-03-20T23:42:35;22.63;;;15.20;;
5157;SDS011;2598;52.364;9.772;2023-03-20T23:45:01;20.80;;;14.00;;
5157;SDS011;2598;52.364;9.772;2023-03-20T23:47:27;24.53;;;14.73;;
5157;SDS011;2598;52.364;9.772;2023-03-20T23:49:53;22.50;;;14.57;;